sensor_id;sensor_type;location;lat;lon;timestamp;temperature;humidity
14519;DHT22;7346;50.846;4.388;2022-08-21T00:01:33;19.00;99.90
14519;DHT22;7346;50.846;4.388;2022-08-21T00:04:04;19.00;99.90
14519;DHT22;7346;50.846;4.388;2022-08-21T00:06:31;19.00;99.90
14519;DHT22;7346;50.846;4.388;2022-08-21T00:09:00;19.00;99.90
14519;DHT22;7346;50.846;4.388;2022-08-21T00:11:27;18.90;99.90
14519;DHT22;7346;50.846;4.388;2022-08-21T00:13:55;18.90;99.90
14519;DHT22;7346;50.846;4.388;2022-08-21T00:16:22;18.90;99.90
14519;DHT22;7346;50.846;4.388;2022-08-21T00:18:49;18.80;99.90
14519;DHT22;7346;50.846;4.388;2022-08-21T00:21:16;18.80;99.90
14519;DHT22;7346;50.846;4.388;2022-08-21T00:23:43;18.70;99.90
14519;DHT22;7346;50.846;4.388;2022-08-21T00:26:12;18.70;99.90
14519;DHT22;7346;50.846;4.388;2022-08-21T00:28:39;18.60;99.90
14519;DHT22;7346;50.846;4.388;2022-08-21T00:31:06;18.60;99.90
14519;DHT22;7346;50.846;4.388;2022-08-21T00:33:33;18.50;99.90
14519;DHT22;7346;50.846;4.388;2022-08-21T00:36:01;18.50;99.90
14519;DHT22;7346;50.846;4.388;2022-08-21T00:38:27;18.50;99.90
14519;DHT22;7346;50.846;4.388;2022-08-21T00:40:57;18.50;99.90
14519;DHT22;7346;50.846;4.388;2022-08-21T00:43:29;18.60;99.90
14519;DHT22;7346;50.846;4.388;2022-08-21T00:45:56;18.50;99.90
14519;DHT22;7346;50.846;4.388;2022-08-21T00:48:24;18.50;99.90
14519;DHT22;7346;50.846;4.388;2022-08-21T00:50:57;18.50;99.90
14519;DHT22;7346;50.846;4.388;2022-08-21T00:53:25;18.50;99.90
14519;DHT22;7346;50.846;4.388;2022-08-21T00:55:52;18.40;99.90
14519;DHT22;7346;50.846;4.388;2022-08-21T00:58:19;18.40;99.90
14519;DHT22;7346;50.846;4.388;2022-08-21T01:00:49;18.40;99.90
14519;DHT22;7346;50.846;4.388;2022-08-21T01:03:19;18.40;99.90
14519;DHT22;7346;50.846;4.388;2022-08-21T01:05:46;18.30;99.90
14519;DHT22;7346;50.846;4.388;2022-08-21T01:08:15;18.30;99.90
14519;DHT22;7346;50.846;4.388;2022-08-21T01:10:43;18.30;99.90
14519;DHT22;7346;50.846;4.388;2022-08-21T01:13:11;18.30;99.90
14519;DHT22;7346;50.846;4.388;2022-08-21T01:15:43;18.30;99.90
14519;DHT22;7346;50.846;4.388;2022-08-21T01:18:13;18.30;99.90
14519;DHT22;7346;50.846;4.388;2022-08-21T01:20:44;18.20;99.90
14519;DHT22;7346;50.846;4.388;2022-08-21T01:23:12;18.20;99.90
14519;DHT22;7346;50.846;4.388;2022-08-21T01:25:39;18.20;99.90
14519;DHT22;7346;50.846;4.388;2022-08-21T01:28:14;18.20;99.90
14519;DHT22;7346;50.846;4.388;2022-08-21T01:30:42;18.20;99.90
14519;DHT22;7346;50.846;4.388;2022-08-21T01:33:09;18.10;99.90
14519;DHT22;7346;50.846;4.388;2022-08-21T01:35:37;18.10;99.90
14519;DHT22;7346;50.846;4.388;2022-08-21T01:38:04;18.10;99.90
14519;DHT22;7346;50.846;4.388;2022-08-21T01:40:32;18.00;99.90
14519;DHT22;7346;50.846;4.388;2022-08-21T01:42:59;18.00;99.90
14519;DHT22;7346;50.846;4.388;2022-08-21T01:45:26;18.00;99.90
14519;DHT22;7346;50.846;4.388;2022-08-21T01:47:53;18.00;99.90
14519;DHT22;7346;50.846;4.388;2022-08-21T01:50:21;18.00;99.90
14519;DHT22;7346;50.846;4.388;2022-08-21T01:52:49;18.00;99.90
14519;DHT22;7346;50.846;4.388;2022-08-21T01:55:17;18.00;99.90
14519;DHT22;7346;50.846;4.388;2022-08-21T01:57:46;17.90;99.90
14519;DHT22;7346;50.846;4.388;2022-08-21T02:00:16;17.90;99.90
14519;DHT22;7346;50.846;4.388;2022-08-21T02:02:43;17.90;99.90
14519;DHT22;7346;50.846;4.388;2022-08-21T02:05:12;17.90;99.90
14519;DHT22;7346;50.846;4.388;2022-08-21T02:07:41;18.00;99.90
14519;DHT22;7346;50.846;4.388;2022-08-21T02:10:11;18.00;99.90
14519;DHT22;7346;50.846;4.388;2022-08-21T02:12:38;18.00;99.90
14519;DHT22;7346;50.846;4.388;2022-08-21T02:15:07;17.90;99.90
14519;DHT22;7346;50.846;4.388;2022-08-21T02:17:45;17.90;99.90
14519;DHT22;7346;50.846;4.388;2022-08-21T02:20:24;17.90;99.90
14519;DHT22;7346;50.846;4.388;2022-08-21T02:22:52;17.80;99.90
14519;DHT22;7346;50.846;4.388;2022-08-21T02:25:20;17.90;99.90
14519;DHT22;7346;50.846;4.388;2022-08-21T02:27:48;17.80;99.90
14519;DHT22;7346;50.846;4.388;2022-08-21T02:30:19;17.80;99.90
14519;DHT22;7346;50.846;4.388;2022-08-21T02:32:46;17.80;99.90
14519;DHT22;7346;50.846;4.388;2022-08-21T02:35:13;17.80;99.90
14519;DHT22;7346;50.846;4.388;2022-08-21T02:37:44;17.80;99.90
14519;DHT22;7346;50.846;4.388;2022-08-21T02:40:13;17.70;99.90
14519;DHT22;7346;50.846;4.388;2022-08-21T02:42:40;17.70;99.90
14519;DHT22;7346;50.846;4.388;2022-08-21T02:45:09;17.70;99.90
14519;DHT22;7346;50.846;4.388;2022-08-21T02:47:38;17.60;99.90
14519;DHT22;7346;50.846;4.388;2022-08-21T02:50:07;17.60;99.90
14519;DHT22;7346;50.846;4.388;2022-08-21T02:52:34;17.60;99.90
14519;DHT22;7346;50.846;4.388;2022-08-21T02:55:03;17.60;99.90
14519;DHT22;7346;50.846;4.388;2022-08-21T02:57:30;17.60;99.90
14519;DHT22;7346;50.846;4.388;2022-08-21T02:59:58;17.60;99.90
14519;DHT22;7346;50.846;4.388;2022-08-21T03:02:25;17.60;99.90
14519;DHT22;7346;50.846;4.388;2022-08-21T03:04:53;17.60;99.90
14519;DHT22;7346;50.846;4.388;2022-08-21T03:07:20;17.60;99.90
14519;DHT22;7346;50.846;4.388;2022-08-21T03:09:47;17.60;99.90
14519;DHT22;7346;50.846;4.388;2022-08-21T03:12:14;17.60;99.90
14519;DHT22;7346;50.846;4.388;2022-08-21T03:14:41;17.60;99.90
14519;DHT22;7346;50.846;4.388;2022-08-21T03:17:07;17.50;99.90
14519;DHT22;7346;50.846;4.388;2022-08-21T03:19:34;17.60;99.90
14519;DHT22;7346;50.846;4.388;2022-08-21T03:22:03;17.60;99.90
14519;DHT22;7346;50.846;4.388;2022-08-21T03:24:30;17.60;99.90
14519;DHT22;7346;50.846;4.388;2022-08-21T03:26:57;17.60;99.90
14519;DHT22;7346;50.846;4.388;2022-08-21T03:29:25;17.60;99.90
14519;DHT22;7346;50.846;4.388;2022-08-21T03:31:52;17.60;99.90
14519;DHT22;7346;50.846;4.388;2022-08-21T03:34:20;17.60;99.90
14519;DHT22;7346;50.846;4.388;2022-08-21T03:36:48;17.50;99.90
14519;DHT22;7346;50.846;4.388;2022-08-21T03:39:17;17.50;99.90
14519;DHT22;7346;50.846;4.388;2022-08-21T03:41:44;17.50;99.90
14519;DHT22;7346;50.846;4.388;2022-08-21T03:44:11;17.40;99.90
14519;DHT22;7346;50.846;4.388;2022-08-21T03:46:38;17.40;99.90
14519;DHT22;7346;50.846;4.388;2022-08-21T03:49:05;17.40;99.90
14519;DHT22;7346;50.846;4.388;2022-08-21T03:51:32;17.30;99.90
14519;DHT22;7346;50.846;4.388;2022-08-21T03:54:01;17.30;99.90
14519;DHT22;7346;50.846;4.388;2022-08-21T03:56:29;17.30;99.90
14519;DHT22;7346;50.846;4.388;2022-08-21T03:58:56;17.20;99.90
14519;DHT22;7346;50.846;4.388;2022-08-21T04:01:23;17.20;99.90
14519;DHT22;7346;50.846;4.388;2022-08-21T04:03:50;17.20;99.90
14519;DHT22;7346;50.846;4.388;2022-08-21T04:06:17;17.20;99.90
14519;DHT22;7346;50.846;4.388;2022-08-21T04:08:44;17.10;99.90
14519;DHT22;7346;50.846;4.388;2022-08-21T04:11:12;17.10;99.90
14519;DHT22;7346;50.846;4.388;2022-08-21T04:13:43;17.10;99.90
14519;DHT22;7346;50.846;4.388;2022-08-21T04:16:09;17.10;99.90
14519;DHT22;7346;50.846;4.388;2022-08-21T04:18:36;17.10;99.90
14519;DHT22;7346;50.846;4.388;2022-08-21T04:21:04;17.10;99.90
14519;DHT22;7346;50.846;4.388;2022-08-21T04:23:31;17.10;99.90
14519;DHT22;7346;50.846;4.388;2022-08-21T04:25:58;17.10;99.90
14519;DHT22;7346;50.846;4.388;2022-08-21T04:28:27;17.20;99.90
14519;DHT22;7346;50.846;4.388;2022-08-21T04:30:55;17.20;99.90
14519;DHT22;7346;50.846;4.388;2022-08-21T04:33:23;17.20;99.90
14519;DHT22;7346;50.846;4.388;2022-08-21T04:35:50;17.20;99.90
14519;DHT22;7346;50.846;4.388;2022-08-21T04:38:18;17.20;99.90
14519;DHT22;7346;50.846;4.388;2022-08-21T04:40:45;17.20;99.90
14519;DHT22;7346;50.846;4.388;2022-08-21T04:43:12;17.20;99.90
14519;DHT22;7346;50.846;4.388;2022-08-21T04:45:40;17.20;99.90
14519;DHT22;7346;50.846;4.388;2022-08-21T04:48:11;17.20;99.90
14519;DHT22;7346;50.846;4.388;2022-08-21T04:50:42;17.30;99.90
14519;DHT22;7346;50.846;4.388;2022-08-21T04:53:11;17.20;99.90
14519;DHT22;7346;50.846;4.388;2022-08-21T04:55:42;17.20;99.90
14519;DHT22;7346;50.846;4.388;2022-08-21T04:58:12;17.20;99.90
14519;DHT22;7346;50.846;4.388;2022-08-21T05:00:39;17.30;99.90
14519;DHT22;7346;50.846;4.388;2022-08-21T05:03:09;17.30;99.90
14519;DHT22;7346;50.846;4.388;2022-08-21T05:05:38;17.30;99.90
14519;DHT22;7346;50.846;4.388;2022-08-21T05:08:07;17.20;99.90
14519;DHT22;7346;50.846;4.388;2022-08-21T05:10:35;17.20;99.90
14519;DHT22;7346;50.846;4.388;2022-08-21T05:13:02;17.20;99.90
14519;DHT22;7346;50.846;4.388;2022-08-21T05:15:30;17.30;99.90
14519;DHT22;7346;50.846;4.388;2022-08-21T05:17:57;17.30;99.90
14519;DHT22;7346;50.846;4.388;2022-08-21T05:20:26;17.20;99.90
14519;DHT22;7346;50.846;4.388;2022-08-21T05:22:53;17.30;99.90
14519;DHT22;7346;50.846;4.388;2022-08-21T05:25:20;17.40;99.90
14519;DHT22;7346;50.846;4.388;2022-08-21T05:27:47;17.40;99.90
14519;DHT22;7346;50.846;4.388;2022-08-21T05:30:14;17.40;99.90
14519;DHT22;7346;50.846;4.388;2022-08-21T05:32:41;17.40;99.90
14519;DHT22;7346;50.846;4.388;2022-08-21T05:35:08;17.40;99.90
14519;DHT22;7346;50.846;4.388;2022-08-21T05:37:37;17.30;99.90
14519;DHT22;7346;50.846;4.388;2022-08-21T05:40:05;17.30;99.90
14519;DHT22;7346;50.846;4.388;2022-08-21T05:42:33;17.30;99.90
14519;DHT22;7346;50.846;4.388;2022-08-21T05:45:00;17.40;99.90
14519;DHT22;7346;50.846;4.388;2022-08-21T05:47:28;17.40;99.90
14519;DHT22;7346;50.846;4.388;2022-08-21T05:49:55;17.40;99.90
14519;DHT22;7346;50.846;4.388;2022-08-21T05:52:22;17.40;99.90
14519;DHT22;7346;50.846;4.388;2022-08-21T05:54:50;17.40;99.90
14519;DHT22;7346;50.846;4.388;2022-08-21T05:57:19;17.40;99.90
14519;DHT22;7346;50.846;4.388;2022-08-21T05:59:46;17.30;99.90
14519;DHT22;7346;50.846;4.388;2022-08-21T06:02:13;17.30;99.90
14519;DHT22;7346;50.846;4.388;2022-08-21T06:04:40;17.30;99.90
14519;DHT22;7346;50.846;4.388;2022-08-21T06:07:08;17.40;99.90
14519;DHT22;7346;50.846;4.388;2022-08-21T06:09:35;17.40;99.90
14519;DHT22;7346;50.846;4.388;2022-08-21T06:12:06;17.40;99.90
14519;DHT22;7346;50.846;4.388;2022-08-21T06:14:34;17.40;99.90
14519;DHT22;7346;50.846;4.388;2022-08-21T06:17:03;17.50;99.90
14519;DHT22;7346;50.846;4.388;2022-08-21T06:19:30;17.50;99.90
14519;DHT22;7346;50.846;4.388;2022-08-21T06:21:57;17.60;99.90
14519;DHT22;7346;50.846;4.388;2022-08-21T06:24:24;17.70;99.90
14519;DHT22;7346;50.846;4.388;2022-08-21T06:26:52;17.70;99.90
14519;DHT22;7346;50.846;4.388;2022-08-21T06:29:21;17.80;99.90
14519;DHT22;7346;50.846;4.388;2022-08-21T06:31:50;17.80;99.90
14519;DHT22;7346;50.846;4.388;2022-08-21T06:34:18;17.90;99.90
14519;DHT22;7346;50.846;4.388;2022-08-21T06:36:45;17.90;99.90
14519;DHT22;7346;50.846;4.388;2022-08-21T06:39:12;18.00;99.90
14519;DHT22;7346;50.846;4.388;2022-08-21T06:41:40;18.00;99.90
14519;DHT22;7346;50.846;4.388;2022-08-21T06:44:07;17.80;99.90
14519;DHT22;7346;50.846;4.388;2022-08-21T06:46:35;17.70;99.90
14519;DHT22;7346;50.846;4.388;2022-08-21T06:49:02;17.70;99.90
14519;DHT22;7346;50.846;4.388;2022-08-21T06:51:30;17.70;99.90
14519;DHT22;7346;50.846;4.388;2022-08-21T06:53:57;17.80;99.90
14519;DHT22;7346;50.846;4.388;2022-08-21T06:56:24;17.80;99.90
14519;DHT22;7346;50.846;4.388;2022-08-21T06:58:51;17.80;99.90
14519;DHT22;7346;50.846;4.388;2022-08-21T07:01:18;17.80;99.90
14519;DHT22;7346;50.846;4.388;2022-08-21T07:03:47;17.90;99.90
14519;DHT22;7346;50.846;4.388;2022-08-21T07:06:14;18.00;99.90
14519;DHT22;7346;50.846;4.388;2022-08-21T07:08:43;18.10;99.90
14519;DHT22;7346;50.846;4.388;2022-08-21T07:11:12;18.30;99.90
14519;DHT22;7346;50.846;4.388;2022-08-21T07:13:41;18.30;99.90
14519;DHT22;7346;50.846;4.388;2022-08-21T07:16:08;18.40;99.90
14519;DHT22;7346;50.846;4.388;2022-08-21T07:18:35;18.40;99.90
14519;DHT22;7346;50.846;4.388;2022-08-21T07:21:05;18.50;99.90
14519;DHT22;7346;50.846;4.388;2022-08-21T07:23:36;18.60;99.90
14519;DHT22;7346;50.846;4.388;2022-08-21T07:26:03;18.70;99.90
14519;DHT22;7346;50.846;4.388;2022-08-21T07:28:30;18.90;99.90
14519;DHT22;7346;50.846;4.388;2022-08-21T07:30:59;18.90;99.90
14519;DHT22;7346;50.846;4.388;2022-08-21T07:33:29;19.00;99.90
14519;DHT22;7346;50.846;4.388;2022-08-21T07:35:57;19.00;99.90
14519;DHT22;7346;50.846;4.388;2022-08-21T07:38:25;19.00;99.90
14519;DHT22;7346;50.846;4.388;2022-08-21T07:40:55;19.10;99.90
14519;DHT22;7346;50.846;4.388;2022-08-21T07:43:24;19.40;99.90
14519;DHT22;7346;50.846;4.388;2022-08-21T07:45:51;19.50;99.90
14519;DHT22;7346;50.846;4.388;2022-08-21T07:48:20;19.80;99.90
14519;DHT22;7346;50.846;4.388;2022-08-21T07:50:47;19.80;99.90
14519;DHT22;7346;50.846;4.388;2022-08-21T07:53:15;19.90;99.90
14519;DHT22;7346;50.846;4.388;2022-08-21T07:55:43;19.90;99.90
14519;DHT22;7346;50.846;4.388;2022-08-21T07:58:10;19.90;99.90
14519;DHT22;7346;50.846;4.388;2022-08-21T08:00:38;20.00;99.90
14519;DHT22;7346;50.846;4.388;2022-08-21T08:03:06;20.00;99.90
14519;DHT22;7346;50.846;4.388;2022-08-21T08:05:32;19.90;99.90
14519;DHT22;7346;50.846;4.388;2022-08-21T08:08:02;20.00;99.90
14519;DHT22;7346;50.846;4.388;2022-08-21T08:10:29;20.10;99.90
14519;DHT22;7346;50.846;4.388;2022-08-21T08:12:58;20.20;99.90
14519;DHT22;7346;50.846;4.388;2022-08-21T08:15:26;20.20;99.90
14519;DHT22;7346;50.846;4.388;2022-08-21T08:17:53;20.00;99.90
14519;DHT22;7346;50.846;4.388;2022-08-21T08:20:21;20.00;99.90
14519;DHT22;7346;50.846;4.388;2022-08-21T08:22:49;19.90;99.90
14519;DHT22;7346;50.846;4.388;2022-08-21T08:25:17;19.90;99.90
14519;DHT22;7346;50.846;4.388;2022-08-21T08:27:45;19.80;99.90
14519;DHT22;7346;50.846;4.388;2022-08-21T08:30:15;19.80;99.90
14519;DHT22;7346;50.846;4.388;2022-08-21T08:32:44;19.90;99.90
14519;DHT22;7346;50.846;4.388;2022-08-21T08:35:11;20.00;99.90
14519;DHT22;7346;50.846;4.388;2022-08-21T08:37:39;20.00;99.90
14519;DHT22;7346;50.846;4.388;2022-08-21T08:40:09;20.00;99.90
14519;DHT22;7346;50.846;4.388;2022-08-21T08:42:37;20.00;99.90
14519;DHT22;7346;50.846;4.388;2022-08-21T08:45:08;20.10;99.90
14519;DHT22;7346;50.846;4.388;2022-08-21T08:47:46;20.30;99.90
14519;DHT22;7346;50.846;4.388;2022-08-21T08:50:18;20.50;99.90
14519;DHT22;7346;50.846;4.388;2022-08-21T08:52:49;20.70;99.90
14519;DHT22;7346;50.846;4.388;2022-08-21T08:55:21;20.50;99.90
14519;DHT22;7346;50.846;4.388;2022-08-21T08:57:51;20.50;99.90
14519;DHT22;7346;50.846;4.388;2022-08-21T09:00:22;20.50;99.90
14519;DHT22;7346;50.846;4.388;2022-08-21T09:02:54;20.60;99.90
14519;DHT22;7346;50.846;4.388;2022-08-21T09:05:24;20.60;99.90
14519;DHT22;7346;50.846;4.388;2022-08-21T09:10:53;20.80;99.90
14519;DHT22;7346;50.846;4.388;2022-08-21T09:13:27;20.90;99.90
14519;DHT22;7346;50.846;4.388;2022-08-21T09:16:08;21.00;99.90
14519;DHT22;7346;50.846;4.388;2022-08-21T09:18:44;21.10;99.90
14519;DHT22;7346;50.846;4.388;2022-08-21T09:21:20;21.10;99.90
14519;DHT22;7346;50.846;4.388;2022-08-21T09:23:55;21.00;99.90
14519;DHT22;7346;50.846;4.388;2022-08-21T09:26:26;21.10;99.90
14519;DHT22;7346;50.846;4.388;2022-08-21T09:28:56;21.10;99.90
14519;DHT22;7346;50.846;4.388;2022-08-21T09:31:26;21.20;99.90
14519;DHT22;7346;50.846;4.388;2022-08-21T09:33:59;21.50;99.90
14519;DHT22;7346;50.846;4.388;2022-08-21T09:36:35;21.60;99.90
14519;DHT22;7346;50.846;4.388;2022-08-21T09:39:03;21.90;99.90
14519;DHT22;7346;50.846;4.388;2022-08-21T09:41:32;22.10;99.90
14519;DHT22;7346;50.846;4.388;2022-08-21T09:44:01;22.50;99.90
14519;DHT22;7346;50.846;4.388;2022-08-21T09:46:28;22.80;99.90
14519;DHT22;7346;50.846;4.388;2022-08-21T09:48:59;22.90;99.90
14519;DHT22;7346;50.846;4.388;2022-08-21T09:51:28;23.10;99.90
14519;DHT22;7346;50.846;4.388;2022-08-21T09:54:10;23.20;99.90
14519;DHT22;7346;50.846;4.388;2022-08-21T09:56:50;23.20;99.90
14519;DHT22;7346;50.846;4.388;2022-08-21T09:59:35;23.10;99.90
14519;DHT22;7346;50.846;4.388;2022-08-21T10:02:22;23.10;99.90
14519;DHT22;7346;50.846;4.388;2022-08-21T10:04:53;23.00;99.90
14519;DHT22;7346;50.846;4.388;2022-08-21T10:07:23;22.90;99.90
14519;DHT22;7346;50.846;4.388;2022-08-21T10:09:59;22.70;99.90
14519;DHT22;7346;50.846;4.388;2022-08-21T10:12:33;22.60;99.90
14519;DHT22;7346;50.846;4.388;2022-08-21T10:15:13;22.50;99.90
14519;DHT22;7346;50.846;4.388;2022-08-21T10:17:51;22.50;99.90
14519;DHT22;7346;50.846;4.388;2022-08-21T10:20:25;22.70;99.90
14519;DHT22;7346;50.846;4.388;2022-08-21T10:23:04;22.80;99.90
14519;DHT22;7346;50.846;4.388;2022-08-21T10:25:40;23.00;99.90
14519;DHT22;7346;50.846;4.388;2022-08-21T10:28:16;22.90;99.90
14519;DHT22;7346;50.846;4.388;2022-08-21T10:30:50;22.80;99.90
14519;DHT22;7346;50.846;4.388;2022-08-21T10:33:28;23.00;99.90
14519;DHT22;7346;50.846;4.388;2022-08-21T10:36:04;23.10;99.90
14519;DHT22;7346;50.846;4.388;2022-08-21T10:38:56;22.90;99.90
14519;DHT22;7346;50.846;4.388;2022-08-21T10:41:32;22.80;99.90
14519;DHT22;7346;50.846;4.388;2022-08-21T10:44:12;22.80;99.90
14519;DHT22;7346;50.846;4.388;2022-08-21T10:46:47;23.00;99.90
14519;DHT22;7346;50.846;4.388;2022-08-21T10:49:23;23.10;99.90
14519;DHT22;7346;50.846;4.388;2022-08-21T10:52:01;23.30;99.90
14519;DHT22;7346;50.846;4.388;2022-08-21T10:54:38;23.30;99.90
14519;DHT22;7346;50.846;4.388;2022-08-21T10:57:15;23.30;99.90
14519;DHT22;7346;50.846;4.388;2022-08-21T10:59:48;23.30;99.90
14519;DHT22;7346;50.846;4.388;2022-08-21T11:02:21;23.60;99.90
14519;DHT22;7346;50.846;4.388;2022-08-21T11:04:54;23.80;99.90
14519;DHT22;7346;50.846;4.388;2022-08-21T11:07:26;23.80;99.90
14519;DHT22;7346;50.846;4.388;2022-08-21T11:09:57;23.90;99.90
14519;DHT22;7346;50.846;4.388;2022-08-21T11:12:30;24.10;99.90
14519;DHT22;7346;50.846;4.388;2022-08-21T11:15:04;24.10;99.90
14519;DHT22;7346;50.846;4.388;2022-08-21T11:17:35;24.00;99.90
14519;DHT22;7346;50.846;4.388;2022-08-21T11:20:09;23.70;99.90
14519;DHT22;7346;50.846;4.388;2022-08-21T11:22:44;23.40;99.90
14519;DHT22;7346;50.846;4.388;2022-08-21T11:25:18;23.60;99.90
14519;DHT22;7346;50.846;4.388;2022-08-21T11:27:52;23.60;99.90
14519;DHT22;7346;50.846;4.388;2022-08-21T11:30:21;23.40;99.90
14519;DHT22;7346;50.846;4.388;2022-08-21T11:33:02;23.30;99.90
14519;DHT22;7346;50.846;4.388;2022-08-21T11:35:36;23.10;99.90
14519;DHT22;7346;50.846;4.388;2022-08-21T11:38:17;23.10;99.90
14519;DHT22;7346;50.846;4.388;2022-08-21T11:40:57;23.40;99.90
14519;DHT22;7346;50.846;4.388;2022-08-21T11:43:35;23.70;99.90
14519;DHT22;7346;50.846;4.388;2022-08-21T11:46:12;23.70;99.90
14519;DHT22;7346;50.846;4.388;2022-08-21T11:48:48;23.80;99.90
14519;DHT22;7346;50.846;4.388;2022-08-21T11:51:20;24.00;99.90
14519;DHT22;7346;50.846;4.388;2022-08-21T11:54:01;23.90;99.90
14519;DHT22;7346;50.846;4.388;2022-08-21T11:56:37;24.00;99.90
14519;DHT22;7346;50.846;4.388;2022-08-21T11:59:10;24.20;99.90
14519;DHT22;7346;50.846;4.388;2022-08-21T12:01:43;24.10;99.90
14519;DHT22;7346;50.846;4.388;2022-08-21T12:04:26;24.30;99.90
14519;DHT22;7346;50.846;4.388;2022-08-21T12:06:54;24.30;99.90
14519;DHT22;7346;50.846;4.388;2022-08-21T12:09:33;24.40;99.90
14519;DHT22;7346;50.846;4.388;2022-08-21T12:12:05;24.30;99.90
14519;DHT22;7346;50.846;4.388;2022-08-21T12:14:37;24.50;99.90
14519;DHT22;7346;50.846;4.388;2022-08-21T12:17:06;24.80;99.90
14519;DHT22;7346;50.846;4.388;2022-08-21T12:19:34;24.80;99.90
14519;DHT22;7346;50.846;4.388;2022-08-21T12:22:10;24.80;99.90
14519;DHT22;7346;50.846;4.388;2022-08-21T12:24:40;24.70;99.90
14519;DHT22;7346;50.846;4.388;2022-08-21T12:27:20;24.80;99.90
14519;DHT22;7346;50.846;4.388;2022-08-21T12:29:54;24.80;99.90
14519;DHT22;7346;50.846;4.388;2022-08-21T12:32:26;24.90;99.90
14519;DHT22;7346;50.846;4.388;2022-08-21T12:34:55;25.00;99.90
14519;DHT22;7346;50.846;4.388;2022-08-21T12:37:31;25.20;99.90
14519;DHT22;7346;50.846;4.388;2022-08-21T12:40:10;25.10;99.90
14519;DHT22;7346;50.846;4.388;2022-08-21T12:42:41;25.10;99.90
14519;DHT22;7346;50.846;4.388;2022-08-21T12:45:17;25.00;99.90
14519;DHT22;7346;50.846;4.388;2022-08-21T12:47:48;24.80;99.90
14519;DHT22;7346;50.846;4.388;2022-08-21T12:50:20;24.60;99.90
14519;DHT22;7346;50.846;4.388;2022-08-21T12:52:54;24.70;99.90
14519;DHT22;7346;50.846;4.388;2022-08-21T12:55:29;24.70;99.90
14519;DHT22;7346;50.846;4.388;2022-08-21T12:57:57;24.80;99.90
14519;DHT22;7346;50.846;4.388;2022-08-21T13:00:27;24.90;99.90
14519;DHT22;7346;50.846;4.388;2022-08-21T13:02:55;24.90;99.90
14519;DHT22;7346;50.846;4.388;2022-08-21T13:05:30;24.90;99.90
14519;DHT22;7346;50.846;4.388;2022-08-21T13:07:58;25.00;99.90
14519;DHT22;7346;50.846;4.388;2022-08-21T13:10:32;25.10;99.90
14519;DHT22;7346;50.846;4.388;2022-08-21T13:13:02;25.20;99.90
14519;DHT22;7346;50.846;4.388;2022-08-21T13:15:31;25.20;99.90
14519;DHT22;7346;50.846;4.388;2022-08-21T13:17:58;25.30;99.90
14519;DHT22;7346;50.846;4.388;2022-08-21T13:20:30;25.20;99.90
14519;DHT22;7346;50.846;4.388;2022-08-21T13:22:57;25.40;99.90
14519;DHT22;7346;50.846;4.388;2022-08-21T13:25:27;25.60;99.90
14519;DHT22;7346;50.846;4.388;2022-08-21T13:28:01;25.50;99.90
14519;DHT22;7346;50.846;4.388;2022-08-21T13:30:28;25.30;99.90
14519;DHT22;7346;50.846;4.388;2022-08-21T13:32:57;25.20;99.90
14519;DHT22;7346;50.846;4.388;2022-08-21T13:35:28;25.00;99.90
14519;DHT22;7346;50.846;4.388;2022-08-21T13:38:06;25.00;99.90
14519;DHT22;7346;50.846;4.388;2022-08-21T13:40:41;25.30;99.90
14519;DHT22;7346;50.846;4.388;2022-08-21T13:43:14;25.50;99.90
14519;DHT22;7346;50.846;4.388;2022-08-21T13:45:47;25.50;99.90
14519;DHT22;7346;50.846;4.388;2022-08-21T13:48:14;25.40;99.90
14519;DHT22;7346;50.846;4.388;2022-08-21T13:50:42;25.50;99.90
14519;DHT22;7346;50.846;4.388;2022-08-21T13:53:21;25.50;99.90
14519;DHT22;7346;50.846;4.388;2022-08-21T13:55:49;25.30;99.90
14519;DHT22;7346;50.846;4.388;2022-08-21T13:58:25;25.10;99.90
14519;DHT22;7346;50.846;4.388;2022-08-21T14:00:54;25.00;99.90
14519;DHT22;7346;50.846;4.388;2022-08-21T14:03:34;24.90;99.90
14519;DHT22;7346;50.846;4.388;2022-08-21T14:06:13;24.90;99.90
14519;DHT22;7346;50.846;4.388;2022-08-21T14:08:41;24.90;99.90
14519;DHT22;7346;50.846;4.388;2022-08-21T14:11:12;24.90;99.90
14519;DHT22;7346;50.846;4.388;2022-08-21T14:13:42;24.90;99.90
14519;DHT22;7346;50.846;4.388;2022-08-21T14:16:17;25.10;99.90
14519;DHT22;7346;50.846;4.388;2022-08-21T14:18:47;24.90;99.90
14519;DHT22;7346;50.846;4.388;2022-08-21T14:21:14;24.70;99.90
14519;DHT22;7346;50.846;4.388;2022-08-21T14:24:02;24.70;99.90
14519;DHT22;7346;50.846;4.388;2022-08-21T14:26:30;24.80;99.90
14519;DHT22;7346;50.846;4.388;2022-08-21T14:29:00;25.00;99.90
14519;DHT22;7346;50.846;4.388;2022-08-21T14:31:29;25.00;99.90
14519;DHT22;7346;50.846;4.388;2022-08-21T14:33:59;25.10;99.90
14519;DHT22;7346;50.846;4.388;2022-08-21T14:36:26;25.00;99.90
14519;DHT22;7346;50.846;4.388;2022-08-21T14:38:53;24.90;99.90
14519;DHT22;7346;50.846;4.388;2022-08-21T14:41:25;24.90;99.90
14519;DHT22;7346;50.846;4.388;2022-08-21T14:43:53;24.90;99.90
14519;DHT22;7346;50.846;4.388;2022-08-21T14:46:25;25.00;99.90
14519;DHT22;7346;50.846;4.388;2022-08-21T14:48:52;25.00;99.90
14519;DHT22;7346;50.846;4.388;2022-08-21T14:51:19;25.30;99.90
14519;DHT22;7346;50.846;4.388;2022-08-21T14:53:46;25.40;99.90
14519;DHT22;7346;50.846;4.388;2022-08-21T14:56:14;25.40;99.90
14519;DHT22;7346;50.846;4.388;2022-08-21T14:58:45;25.40;99.90
14519;DHT22;7346;50.846;4.388;2022-08-21T15:01:15;25.50;99.90
14519;DHT22;7346;50.846;4.388;2022-08-21T15:03:45;25.50;99.90
14519;DHT22;7346;50.846;4.388;2022-08-21T15:06:14;25.30;99.90
14519;DHT22;7346;50.846;4.388;2022-08-21T15:08:41;25.20;99.90
14519;DHT22;7346;50.846;4.388;2022-08-21T15:11:12;25.10;99.90
14519;DHT22;7346;50.846;4.388;2022-08-21T15:13:40;25.30;99.90
14519;DHT22;7346;50.846;4.388;2022-08-21T15:16:09;25.30;99.90
14519;DHT22;7346;50.846;4.388;2022-08-21T15:18:37;25.30;99.90
14519;DHT22;7346;50.846;4.388;2022-08-21T15:21:05;25.10;99.90
14519;DHT22;7346;50.846;4.388;2022-08-21T15:23:32;25.10;99.90
14519;DHT22;7346;50.846;4.388;2022-08-21T15:26:00;24.90;99.90
14519;DHT22;7346;50.846;4.388;2022-08-21T15:28:27;24.90;99.90
14519;DHT22;7346;50.846;4.388;2022-08-21T15:30:54;25.00;99.90
14519;DHT22;7346;50.846;4.388;2022-08-21T15:33:22;25.00;99.90
14519;DHT22;7346;50.846;4.388;2022-08-21T15:35:49;25.20;99.90
14519;DHT22;7346;50.846;4.388;2022-08-21T15:38:17;25.50;99.90
14519;DHT22;7346;50.846;4.388;2022-08-21T15:40:44;25.20;99.90
14519;DHT22;7346;50.846;4.388;2022-08-21T15:43:20;25.20;99.90
14519;DHT22;7346;50.846;4.388;2022-08-21T15:45:48;25.10;99.90
14519;DHT22;7346;50.846;4.388;2022-08-21T15:48:15;24.90;99.90
14519;DHT22;7346;50.846;4.388;2022-08-21T15:50:42;24.90;99.90
14519;DHT22;7346;50.846;4.388;2022-08-21T15:53:09;25.00;99.90
14519;DHT22;7346;50.846;4.388;2022-08-21T15:55:38;25.20;99.90
14519;DHT22;7346;50.846;4.388;2022-08-21T15:58:05;25.10;99.90
14519;DHT22;7346;50.846;4.388;2022-08-21T16:00:35;25.10;99.90
14519;DHT22;7346;50.846;4.388;2022-08-21T16:03:07;25.00;99.90
14519;DHT22;7346;50.846;4.388;2022-08-21T16:05:37;24.80;99.90